Time;durP1;ratioP1;P1;durP2;ratioP2;P2;SDS_P1;SDS_P2;PMS_P1;PMS_P2;Temp;Humidity;BMP_temperature;BMP_pressure;BME280_temperature;BME280_humidity;BME280_pressure;Samples;Min_cycle;Max_cycle;Signal;HPM_P1;HPM_P2
2023/03/29 00:00:58;;;;;;;4.37;3.47;;;;;;;-0.33;100.00;96725.34;5073057;28;20487;-76
2023/03/29 00:03:27;;;;;;;7.60;3.50;;;;;;;-0.31;100.00;96723.28;5055121;28;20486;-76
2023/03/29 00:06:01;;;;;;;5.63;3.70;;;;;;;-0.10;100.00;96750.22;5034365;28;20445;-76
2023/03/29 00:08:31;;;;;;;16.03;8.17;;;;;;;-0.40;100.00;96704.78;5046266;28;20443;-76
2023/03/29 00:10:58;;;;;;;15.00;7.97;;;;;;;-0.20;100.00;96744.94;5062055;28;20452;-76
2023/03/29 00:13:26;;;;;;;18.00;9.37;;;;;;;-0.21;100.00;96743.38;5042468;28;20439;-76
2023/03/29 00:15:53;;;;;;;12.40;6.90;;;;;;;-0.18;100.00;96743.66;5057592;28;20972;-76
2023/03/29 00:18:20;;;;;;;9.13;5.20;;;;;;;-0.30;100.00;96717.84;5057573;28;20839;-76
2023/03/29 00:20:56;;;;;;;21.53;8.07;;;;;;;-0.45;100.00;96701.34;5067406;28;21056;-76
2023/03/29 00:23:23;;;;;;;22.77;9.10;;;;;;;-0.30;100.00;96736.03;5053862;28;20866;-75
2023/03/29 00:25:54;;;;;;;15.67;8.27;;;;;;;-0.93;100.00;96640.69;5044995;28;20936;-75
2023/03/29 00:28:21;;;;;;;14.70;6.07;;;;;;;-0.30;100.00;96748.22;5076962;28;20846;-76
2023/03/29 00:30:51;;;;;;;7.40;4.50;;;;;;;-0.68;100.00;96698.00;5053623;28;20499;-76
2023/03/29 00:33:19;;;;;;;13.20;4.47;;;;;;;-0.23;100.00;96756.63;5053689;28;20553;-76
2023/03/29 00:35:47;;;;;;;7.60;4.87;;;;;;;-0.30;100.00;96745.63;5037224;28;20442;-76
2023/03/29 00:38:14;;;;;;;5.07;3.13;;;;;;;-0.42;100.00;96721.63;5071698;28;20478;-76
2023/03/29 00:40:48;;;;;;;4.20;3.20;;;;;;;-0.17;100.00;96750.44;5036724;28;20457;-77
2023/03/29 00:43:16;;;;;;;5.60;3.83;;;;;;;-0.23;100.00;96743.63;5089027;28;20419;-76
2023/03/29 00:45:43;;;;;;;7.90;4.10;;;;;;;-0.05;100.00;96755.47;5057301;28;20916;-77
2023/03/29 00:48:12;;;;;;;6.30;4.10;;;;;;;-0.17;100.00;96729.63;5073762;28;20427;-76
2023/03/29 00:50:47;;;;;;;5.50;3.83;;;;;;;0.16;100.00;96779.81;5073756;28;21007;-76
2023/03/29 00:53:32;;;;;;;4.40;3.33;;;;;;;0.29;100.00;96795.78;5073969;28;20478;-76
2023/03/29 00:56:05;;;;;;;6.57;3.77;;;;;;;0.15;100.00;96792.03;5074072;28;20444;-76
2023/03/29 00:58:58;;;;;;;9.30;4.80;;;;;;;-0.06;100.00;96785.88;5073712;28;20461;-76
2023/03/29 01:01:40;;;;;;;4.10;3.10;;;;;;;-0.08;100.00;96777.53;5057726;28;20460;-77
2023/03/29 01:04:21;;;;;;;6.30;4.10;;;;;;;0.25;100.00;96792.09;5056902;28;20490;-77
2023/03/29 01:06:57;;;;;;;7.77;3.53;;;;;;;-0.07;100.00;96750.53;5045125;28;20462;-76
2023/03/29 01:09:29;;;;;;;7.80;4.83;;;;;;;0.26;100.00;96787.66;5050287;28;20431;-77
2023/03/29 01:12:00;;;;;;;5.70;3.73;;;;;;;-0.03;100.00;96750.81;5063780;28;21058;-77
2023/03/29 01:14:32;;;;;;;4.30;3.90;;;;;;;-0.01;100.00;96770.31;5041723;28;20790;-77
2023/03/29 01:16:59;;;;;;;5.03;3.83;;;;;;;-0.17;100.00;96747.03;5058259;28;20968;-77
2023/03/29 01:19:33;;;;;;;6.37;3.70;;;;;;;-0.12;100.00;96767.91;5064867;28;20997;-78
2023/03/29 01:22:07;;;;;;;4.83;3.73;;;;;;;-0.40;100.00;96729.94;5054535;28;20850;-76
2023/03/29 01:24:40;;;;;;;8.30;3.77;;;;;;;-0.32;100.00;96748.47;5061264;28;20481;-76
2023/03/29 01:27:16;;;;;;;8.53;4.50;;;;;;;-0.33;100.00;96735.75;5038157;28;20444;-77
2023/03/29 01:29:56;;;;;;;7.40;4.50;;;;;;;-0.45;100.00;96704.72;5071243;28;20412;-76
2023/03/29 01:32:35;;;;;;;5.47;4.23;;;;;;;-0.21;100.00;96723.38;5058339;28;20452;-76
2023/03/29 01:35:12;;;;;;;6.23;4.60;;;;;;;-0.16;100.00;96720.81;5084803;28;20479;-77
2023/03/29 01:37:46;;;;;;;7.83;4.40;;;;;;;-0.34;100.00;96664.81;5063429;28;20416;-77
2023/03/29 01:40:14;;;;;;;7.83;4.30;;;;;;;-0.31;100.00;96658.34;5027478;28;20471;-77
2023/03/29 01:42:57;;;;;;;7.47;3.70;;;;;;;-0.05;100.00;96699.06;5066276;28;20840;-77
2023/03/29 01:45:35;;;;;;;4.97;3.80;;;;;;;-0.36;100.00;96643.50;5033821;28;20794;-78
2023/03/29 01:48:35;;;;;;;8.23;3.70;;;;;;;-0.33;100.00;96642.22;5043514;28;20589;-77
2023/03/29 01:51:08;;;;;;;6.60;3.87;;;;;;;-0.18;100.00;96664.94;5075192;28;20841;-77
2023/03/29 01:53:42;;;;;;;4.10;3.07;;;;;;;-0.29;100.00;96648.50;5051396;28;20447;-76
2023/03/29 01:56:21;;;;;;;7.00;3.50;;;;;;;-0.20;100.00;96659.22;5056477;28;20436;-76
2023/03/29 01:58:53;;;;;;;3.43;3.00;;;;;;;-0.39;100.00;96612.84;5076516;28;20528;-76
2023/03/29 02:01:24;;;;;;;12.30;4.17;;;;;;;-0.18;100.00;96639.75;5076570;28;20550;-76
2023/03/29 02:03:58;;;;;;;5.57;3.37;;;;;;;-0.07;100.00;96656.97;5063233;28;20446;-78
2023/03/29 02:06:26;;;;;;;5.83;2.87;;;;;;;-0.44;100.00;96599.81;5060607;28;20440;-76
2023/03/29 02:08:54;;;;;;;4.93;2.83;;;;;;;-0.05;100.00;96652.31;5059494;28;20429;-76
2023/03/29 02:11:25;;;;;;;3.20;2.90;;;;;;;-0.04;100.00;96648.66;5065081;28;20463;-77
2023/03/29 02:13:52;;;;;;;5.77;4.47;;;;;;;-0.19;100.00;96632.97;5052109;28;20436;-76
2023/03/29 02:16:19;;;;;;;7.17;4.10;;;;;;;-0.04;100.00;96632.28;5061698;28;20440;-77
2023/03/29 02:18:49;;;;;;;6.27;3.57;;;;;;;0.05;100.00;96640.41;5042775;28;20445;-76
2023/03/29 02:21:24;;;;;;;5.20;3.00;;;;;;;-0.18;100.00;96615.56;5065231;28;20471;-77
2023/03/29 02:23:54;;;;;;;3.30;2.83;;;;;;;-0.34;100.00;96602.50;5049574;28;20425;-76
2023/03/29 02:26:22;;;;;;;5.50;3.53;;;;;;;-0.15;100.00;96628.84;5045306;28;20884;-76
2023/03/29 02:28:50;;;;;;;4.97;3.47;;;;;;;-0.23;100.00;96611.13;5035714;28;20950;-76
2023/03/29 02:31:17;;;;;;;7.77;3.50;;;;;;;0.00;100.00;96630.78;5045682;28;20457;-76
2023/03/29 02:33:52;;;;;;;3.20;2.90;;;;;;;-0.14;100.00;96588.06;5022745;28;20873;-77
2023/03/29 02:36:22;;;;;;;5.00;3.50;;;;;;;0.06;100.00;96623.78;5062330;28;20962;-76
2023/03/29 02:38:51;;;;;;;7.97;4.10;;;;;;;-0.20;100.00;96582.06;5059355;28;20538;-76
2023/03/29 02:41:19;;;;;;;3.50;3.20;;;;;;;-0.26;100.00;96588.25;5056934;28;20447;-76
2023/03/29 02:43:47;;;;;;;7.73;4.23;;;;;;;0.05;100.00;96617.03;5035924;28;21264;-76
2023/03/29 02:46:17;;;;;;;4.60;2.97;;;;;;;-0.33;100.00;96552.09;5069294;28;20431;-76
2023/03/29 02:48:45;;;;;;;7.93;3.93;;;;;;;0.12;100.00;96612.38;5051281;28;20448;-76
2023/03/29 02:51:25;;;;;;;11.90;5.53;;;;;;;-0.01;100.00;96593.59;5069287;28;20986;-76
2023/03/29 02:54:08;;;;;;;19.10;10.30;;;;;;;0.01;100.00;96582.97;5059329;28;20620;-76
2023/03/29 02:56:54;;;;;;;11.63;5.20;;;;;;;0.31;100.00;96610.13;5048014;28;20440;-77
2023/03/29 02:59:23;;;;;;;6.13;3.93;;;;;;;0.31;100.00;96600.50;5048954;28;20478;-77
2023/03/29 03:01:51;;;;;;;7.30;2.87;;;;;;;0.30;100.00;96614.56;5046285;28;20513;-76
2023/03/29 03:04:21;;;;;;;5.67;4.20;;;;;;;0.02;100.00;96563.72;5056856;28;20436;-76
2023/03/29 03:06:48;;;;;;;3.30;2.50;;;;;;;0.28;100.00;96606.22;5046731;28;20454;-77
2023/03/29 03:09:15;;;;;;;4.60;3.30;;;;;;;0.02;100.00;96570.75;5066784;28;20449;-78
2023/03/29 03:11:44;;;;;;;4.87;3.27;;;;;;;-0.14;100.00;96544.66;5047524;28;20452;-77
2023/03/29 03:14:11;;;;;;;4.03;2.50;;;;;;;0.07;100.00;96579.34;5041697;28;20953;-77
2023/03/29 03:16:38;;;;;;;3.53;3.23;;;;;;;0.11;100.00;96587.41;5063201;28;20543;-77
2023/03/29 03:19:05;;;;;;;7.27;4.70;;;;;;;0.00;100.00;96563.22;5051889;28;20551;-76
2023/03/29 03:21:34;;;;;;;7.93;5.50;;;;;;;0.13;100.00;96572.34;5051983;28;20817;-78
2023/03/29 03:24:00;;;;;;;10.83;5.73;;;;;;;0.04;100.00;96540.88;5051423;28;20436;-77
2023/03/29 03:26:28;;;;;;;6.93;4.50;;;;;;;0.38;100.00;96585.44;5048221;28;20467;-77
2023/03/29 03:28:57;;;;;;;16.90;6.37;;;;;;;0.27;100.00;96587.25;5045034;28;20443;-77
2023/03/29 03:31:51;;;;;;;10.97;5.60;;;;;;;0.06;100.00;96546.59;5049675;28;20989;-77
2023/03/29 03:34:37;;;;;;;12.13;5.13;;;;;;;0.17;100.00;96563.81;5058418;28;20901;-77
2023/03/29 03:37:04;;;;;;;7.07;4.10;;;;;;;0.14;100.00;96585.09;5044699;28;20444;-77
2023/03/29 03:39:33;;;;;;;8.30;4.57;;;;;;;-0.03;100.00;96574.09;5044165;28;20495;-77
2023/03/29 03:42:01;;;;;;;5.60;3.67;;;;;;;-0.57;100.00;96485.22;5067256;28;20475;-76
2023/03/29 03:44:29;;;;;;;3.90;3.23;;;;;;;0.08;100.00;96577.53;5048792;28;20984;-77
2023/03/29 03:47:16;;;;;;;5.73;2.80;;;;;;;-0.02;100.00;96581.63;5072081;28;20941;-77
2023/03/29 03:49:42;;;;;;;3.37;3.07;;;;;;;-0.13;100.00;96561.06;5043955;28;20536;-77
2023/03/29 03:52:10;;;;;;;10.27;3.43;;;;;;;0.03;100.00;96583.50;5037812;28;20488;-77
2023/03/29 03:54:36;;;;;;;4.13;3.30;;;;;;;-0.17;100.00;96547.78;5067695;28;20432;-77
2023/03/29 03:57:23;;;;;;;5.57;3.07;;;;;;;-0.09;100.00;96559.50;5072084;28;20447;-78
2023/03/29 03:59:51;;;;;;;3.40;3.10;;;;;;;-0.24;100.00;96538.66;5067097;28;20460;-77
2023/03/29 04:02:27;;;;;;;8.10;3.90;;;;;;;-0.18;100.00;96555.81;5072027;28;20455;-77
2023/03/29 04:04:54;;;;;;;7.77;3.83;;;;;;;-0.16;100.00;96538.16;5059417;28;20432;-77
2023/03/29 04:07:28;;;;;;;3.83;3.40;;;;;;;0.04;100.00;96559.06;5029030;28;20822;-78
2023/03/29 04:10:03;;;;;;;4.87;3.30;;;;;;;0.08;100.00;96561.94;5061492;28;20432;-76
2023/03/29 04:12:40;;;;;;;7.67;3.40;;;;;;;0.01;100.00;96543.19;5042329;28;20434;-77
2023/03/29 04:15:09;;;;;;;4.60;3.20;;;;;;;0.11;100.00;96566.63;5061631;28;20455;-77
2023/03/29 04:17:38;;;;;;;8.63;3.40;;;;;;;-0.06;100.00;96536.41;5051234;28;20440;-77
2023/03/29 04:20:24;;;;;;;4.30;3.37;;;;;;;0.19;100.00;96571.34;5072177;28;21081;-77
2023/03/29 04:22:51;;;;;;;3.80;3.10;;;;;;;-0.20;100.00;96511.13;5060938;28;20471;-77
2023/03/29 04:25:21;;;;;;;4.33;3.43;;;;;;;0.09;100.00;96572.06;5057041;28;20893;-77
2023/03/29 04:27:49;;;;;;;4.63;3.47;;;;;;;-0.16;100.00;96536.34;5063117;28;20486;-77
2023/03/29 04:30:36;;;;;;;3.50;3.20;;;;;;;-0.06;100.00;96552.00;5015950;28;20445;-77
2023/03/29 04:33:20;;;;;;;5.17;3.17;;;;;;;0.02;100.00;96552.56;5046770;28;20480;-78
2023/03/29 04:35:53;;;;;;;5.00;3.80;;;;;;;-0.04;100.00;96552.50;5062515;28;20532;-78
2023/03/29 04:38:21;;;;;;;3.63;2.97;;;;;;;-0.02;100.00;96541.88;5067038;28;20432;-77
2023/03/29 04:40:50;;;;;;;3.67;2.90;;;;;;;-0.16;100.00;96522.56;5061993;28;20932;-76
2023/03/29 04:43:37;;;;;;;4.13;3.73;;;;;;;0.08;100.00;96554.13;5052320;28;20974;-77
2023/03/29 04:46:25;;;;;;;8.53;5.07;;;;;;;-0.26;100.00;96499.94;5055578;28;20482;-78
2023/03/29 04:49:27;;;;;;;6.80;4.80;;;;;;;0.05;100.00;96531.25;5022725;28;20947;-76
2023/03/29 04:51:54;;;;;;;8.90;5.03;;;;;;;0.15;100.00;96539.88;5058913;28;20452;-78
2023/03/29 04:54:26;;;;;;;5.23;3.73;;;;;;;0.10;100.00;96518.25;5057008;28;20449;-77
2023/03/29 04:56:58;;;;;;;4.10;3.47;;;;;;;0.08;100.00;96528.91;5063563;28;20466;-77
2023/03/29 04:59:44;;;;;;;5.53;4.67;;;;;;;0.03;100.00;96515.13;5045285;28;20454;-77
2023/03/29 05:02:31;;;;;;;9.33;5.20;;;;;;;-0.04;100.00;96529.13;5036486;28;20469;-77
2023/03/29 05:04:59;;;;;;;18.00;10.20;;;;;;;-0.35;100.00;96473.66;5063218;28;20436;-76
2023/03/29 05:07:25;;;;;;;18.60;11.70;;;;;;;-0.06;100.00;96512.22;5063205;28;20463;-77
2023/03/29 05:09:52;;;;;;;21.20;11.07;;;;;;;-0.06;100.00;96505.22;5050589;28;20531;-77
2023/03/29 05:12:20;;;;;;;7.70;4.83;;;;;;;-0.16;100.00;96489.56;5041358;28;20509;-76
2023/03/29 05:14:51;;;;;;;6.67;3.17;;;;;;;-0.20;100.00;96492.94;5065236;28;20485;-77
2023/03/29 05:17:20;;;;;;;6.30;3.53;;;;;;;-0.11;100.00;96517.41;5060179;28;20499;-77
2023/03/29 05:19:48;;;;;;;4.57;4.17;;;;;;;0.01;100.00;96520.59;5065405;28;20879;-77
2023/03/29 05:22:15;;;;;;;6.43;4.13;;;;;;;0.15;100.00;96534.69;5059011;28;20456;-76
2023/03/29 05:24:42;;;;;;;5.47;4.03;;;;;;;-0.13;100.00;96485.72;5061423;28;20776;-77
2023/03/29 05:27:14;;;;;;;6.70;5.00;;;;;;;0.17;100.00;96522.22;5070233;28;20534;-76
2023/03/29 05:29:43;;;;;;;7.60;4.47;;;;;;;-0.27;100.00;96441.22;5050678;28;20811;-77
2023/03/29 05:32:39;;;;;;;7.50;4.03;;;;;;;0.14;100.00;96495.94;5051574;28;20436;-77
2023/03/29 05:35:08;;;;;;;7.30;4.43;;;;;;;0.14;100.00;96503.75;5066080;28;20942;-77
2023/03/29 05:37:35;;;;;;;4.40;4.00;;;;;;;-0.02;100.00;96482.88;5048185;28;20482;-74
2023/03/29 05:40:06;;;;;;;5.47;4.50;;;;;;;0.09;100.00;96509.69;5065854;28;20465;-75
2023/03/29 05:42:46;;;;;;;7.83;5.30;;;;;;;0.09;100.00;96501.88;5050132;28;20440;-75
2023/03/29 05:45:14;;;;;;;6.20;3.77;;;;;;;0.20;100.00;96519.09;5044222;28;20471;-75
2023/03/29 05:47:41;;;;;;;5.97;4.73;;;;;;;0.34;100.00;96522.00;5074657;28;20459;-75
2023/03/29 05:50:09;;;;;;;8.67;5.87;;;;;;;0.24;100.00;96520.13;5060146;28;20428;-75
2023/03/29 05:52:37;;;;;;;5.93;4.67;;;;;;;0.32;100.00;96512.91;5043091;28;20445;-75
2023/03/29 05:55:04;;;;;;;7.40;4.30;;;;;;;0.14;100.00;96483.72;5069162;28;20467;-74
2023/03/29 05:57:35;;;;;;;6.83;4.43;;;;;;;0.17;100.00;96459.03;5067524;28;20490;-75
2023/03/29 06:00:13;;;;;;;4.40;4.00;;;;;;;0.26;100.00;96471.25;5056432;28;20486;-76
2023/03/29 06:02:40;;;;;;;6.07;4.73;;;;;;;0.16;100.00;96486.06;5069815;28;20824;-75
2023/03/29 06:05:08;;;;;;;12.73;4.80;;;;;;;0.46;100.00;96519.94;5043045;28;20962;-76
2023/03/29 06:07:39;;;;;;;5.93;4.90;;;;;;;0.48;100.00;96498.88;5069688;28;20455;-75
2023/03/29 06:10:36;;;;;;;9.57;5.17;;;;;;;0.43;100.00;96491.88;5069744;28;20459;-76
2023/03/29 06:13:21;;;;;;;4.90;4.40;;;;;;;0.77;100.00;96517.41;5063957;28;20466;-76
2023/03/29 06:15:48;;;;;;;12.20;5.07;;;;;;;0.62;100.00;96493.97;5043251;28;20475;-76
2023/03/29 06:18:15;;;;;;;7.77;5.70;;;;;;;0.49;100.00;96490.03;5054085;28;20440;-76
2023/03/29 06:20:42;;;;;;;7.20;4.90;;;;;;;0.14;100.00;96430.97;5045791;28;20461;-76
2023/03/29 06:23:12;;;;;;;11.17;6.70;;;;;;;0.54;100.00;96484.88;5051898;28;20450;-75
2023/03/29 06:25:39;;;;;;;5.53;5.00;;;;;;;0.72;100.00;96518.19;5062188;28;20535;-76
2023/03/29 06:28:06;;;;;;;6.07;5.20;;;;;;;0.64;100.00;96520.50;5062420;28;20436;-76
2023/03/29 06:30:33;;;;;;;7.63;5.67;;;;;;;0.52;100.00;96479.91;5043097;28;20452;-75
2023/03/29 06:33:00;;;;;;;6.40;5.10;;;;;;;0.47;100.00;96472.09;5062026;28;20437;-76
2023/03/29 06:35:45;;;;;;;5.50;5.00;;;;;;;0.51;100.00;96493.16;5066087;28;20443;-76
2023/03/29 06:38:16;;;;;;;6.63;5.77;;;;;;;0.43;100.00;96478.06;5066035;28;20508;-75
2023/03/29 06:40:59;;;;;;;14.10;6.10;;;;;;;0.62;100.00;96496.56;5065356;28;20517;-76
2023/03/29 06:43:30;;;;;;;5.20;4.53;;;;;;;0.81;100.00;96501.03;5051985;28;20445;-76
2023/03/29 06:46:10;;;;;;;7.00;4.97;;;;;;;0.82;100.00;96478.38;5049930;28;20524;-75
2023/03/29 06:48:52;;;;;;;5.93;5.07;;;;;;;0.71;100.00;96469.00;5055168;28;20535;-76
2023/03/29 06:51:21;;;;;;;6.80;5.60;;;;;;;0.74;100.00;96477.06;5066161;28;20627;-76
2023/03/29 06:53:49;;;;;;;7.83;5.17;;;;;;;0.74;100.00;96471.09;5063072;28;21003;-76
2023/03/29 06:56:16;;;;;;;6.10;5.10;;;;;;;0.82;100.00;96473.19;5042639;28;20854;-76
2023/03/29 06:58:53;;;;;;;10.30;5.90;;;;;;;0.47;100.00;96437.50;5059468;28;20437;-76
2023/03/29 07:01:46;;;;;;;8.10;6.33;;;;;;;1.02;100.00;96482.81;5044619;28;20884;-76
2023/03/29 07:04:21;;;;;;;6.17;5.63;;;;;;;1.03;100.00;96503.38;5029124;28;20460;-76
2023/03/29 07:07:26;;;;;;;7.43;5.10;;;;;;;0.66;100.00;96466.38;5068906;28;20436;-76
2023/03/29 07:10:08;;;;;;;6.17;5.23;;;;;;;0.88;100.00;96488.53;5049466;28;20437;-76
2023/03/29 07:12:53;;;;;;;6.97;5.17;;;;;;;1.14;100.00;96499.72;5048845;28;20404;-76
2023/03/29 07:15:21;;;;;;;6.87;6.27;;;;;;;1.09;100.00;96484.09;5039948;28;20491;-77
2023/03/29 07:18:19;;;;;;;7.70;6.37;;;;;;;1.10;100.00;96480.47;5060805;28;20441;-77
2023/03/29 07:20:47;;;;;;;6.97;5.37;;;;;;;0.94;100.00;96478.91;5038522;28;20898;-76
2023/03/29 07:23:14;;;;;;;7.00;6.33;;;;;;;1.15;100.00;96509.09;5064965;28;20432;-77
2023/03/29 07:25:40;;;;;;;6.97;4.97;;;;;;;1.03;100.00;96490.34;5058222;28;20447;-77
2023/03/29 07:28:08;;;;;;;6.13;5.53;;;;;;;0.80;100.00;96468.25;5041719;28;20491;-76
2023/03/29 07:30:35;;;;;;;6.43;5.13;;;;;;;1.03;100.00;96486.97;5051168;28;20452;-77
2023/03/29 07:33:12;;;;;;;7.60;5.80;;;;;;;1.25;100.00;96508.31;5051462;28;20493;-78
2023/03/29 07:35:46;;;;;;;8.80;6.00;;;;;;;1.19;100.00;96486.69;5045185;28;20429;-78
2023/03/29 07:38:14;;;;;;;9.57;5.93;;;;;;;1.50;100.00;96497.09;5041483;28;20820;-77
2023/03/29 07:40:46;;;;;;;7.53;5.93;;;;;;;1.63;100.00;96499.13;5051252;28;20834;-77
2023/03/29 07:43:33;;;;;;;8.07;6.20;;;;;;;1.40;100.00;96491.88;5045172;28;20497;-77
2023/03/29 07:46:01;;;;;;;8.20;6.23;;;;;;;1.62;100.00;96488.97;5051080;28;20954;-78
2023/03/29 07:48:28;;;;;;;7.13;6.53;;;;;;;2.03;100.00;96524.31;5064045;28;20866;-77
2023/03/29 07:50:59;;;;;;;6.47;5.47;;;;;;;1.73;100.00;96485.28;5077266;28;20883;-76
2023/03/29 07:53:32;;;;;;;5.97;5.33;;;;;;;2.13;100.00;96512.25;5044409;28;20440;-76
2023/03/29 07:56:02;;;;;;;6.27;5.67;;;;;;;2.04;100.00;96486.75;5041728;28;20450;-77
2023/03/29 07:58:48;;;;;;;7.47;6.10;;;;;;;2.43;100.00;96491.25;5047859;28;20436;-77
2023/03/29 08:01:18;;;;;;;9.07;6.63;;;;;;;2.58;100.00;96496.38;5067797;28;20923;-77
2023/03/29 08:04:11;;;;;;;9.47;6.20;;;;;;;2.87;100.00;96519.19;5067540;28;20519;-77
2023/03/29 08:06:56;;;;;;;9.60;6.50;;;;;;;2.86;100.00;96491.50;5072477;28;20534;-77
2023/03/29 08:09:42;;;;;;;6.80;5.80;;;;;;;2.94;100.00;96515.22;5060263;28;20412;-77
2023/03/29 08:12:08;;;;;;;7.20;6.47;;;;;;;2.73;100.00;96461.56;5058651;28;20801;-78
2023/03/29 08:14:37;;;;;;;6.93;6.20;;;;;;;2.75;100.00;96443.81;5056575;28;20437;-77
2023/03/29 08:17:18;;;;;;;7.63;5.47;;;;;;;3.24;100.00;96498.53;5065051;28;20444;-77
2023/03/29 08:19:48;;;;;;;6.60;6.03;;;;;;;3.34;100.00;96525.59;5063012;28;20955;-78
2023/03/29 08:22:22;;;;;;;6.37;5.73;;;;;;;3.35;100.00;96519.34;5041580;28;20478;-77
2023/03/29 08:25:11;;;;;;;6.53;5.70;;;;;;;3.12;100.00;96469.38;5040560;28;20445;-77
2023/03/29 08:27:43;;;;;;;8.67;5.43;;;;;;;3.36;100.00;96498.16;5047917;28;20851;-77
2023/03/29 08:30:13;;;;;;;10.70;4.90;;;;;;;3.49;100.00;96496.75;5047035;28;20483;-77
2023/03/29 08:32:40;;;;;;;6.43;5.43;;;;;;;3.36;100.00;96474.63;5055229;28;20443;-77
2023/03/29 08:35:08;;;;;;;6.07;5.53;;;;;;;3.68;100.00;96518.50;5057000;28;20679;-77
2023/03/29 08:38:04;;;;;;;6.40;5.80;;;;;;;3.62;100.00;96475.16;5076631;28;20489;-77
2023/03/29 08:40:33;;;;;;;5.30;4.80;;;;;;;3.83;100.00;96517.56;5042325;28;21058;-77
2023/03/29 08:43:21;;;;;;;6.90;5.73;;;;;;;3.65;100.00;96473.84;5041994;28;20993;-76
2023/03/29 08:46:27;;;;;;;5.40;4.90;;;;;;;3.98;100.00;96516.59;5051832;28;20485;-77
2023/03/29 08:49:13;;;;;;;10.73;6.73;;;;;;;3.67;100.00;96448.19;5050793;28;20490;-77
2023/03/29 08:51:51;;;;;;;8.23;6.33;;;;;;;4.12;100.00;96514.88;5064506;28;20447;-77
2023/03/29 08:54:28;;;;;;;5.47;4.87;;;;;;;4.14;100.00;96500.47;5046252;28;20429;-77
2023/03/29 08:57:15;;;;;;;5.67;4.97;;;;;;;4.08;100.00;96482.50;5084880;28;20423;-78
2023/03/29 08:59:50;;;;;;;8.93;6.70;;;;;;;4.31;100.00;96520.16;5060442;28;20436;-77
2023/03/29 09:02:23;;;;;;;7.00;6.30;;;;;;;4.50;100.00;96518.34;5063842;28;20464;-77
2023/03/29 09:05:21;;;;;;;6.30;5.30;;;;;;;4.56;100.00;96514.59;5049506;28;20808;-78
2023/03/29 09:08:00;;;;;;;8.03;4.63;;;;;;;4.54;100.00;96493.16;5048582;28;20447;-77
2023/03/29 09:10:38;;;;;;;5.23;4.83;;;;;;;4.65;100.00;96483.31;5063221;28;20475;-78
2023/03/29 09:13:12;;;;;;;5.60;5.07;;;;;;;4.83;100.00;96477.28;5048702;28;20433;-77
2023/03/29 09:15:51;;;;;;;4.87;4.47;;;;;;;5.00;100.00;96506.38;5054186;28;20424;-77
2023/03/29 09:18:50;;;;;;;9.43;6.37;;;;;;;5.03;100.00;96495.31;5050671;28;20459;-78
2023/03/29 09:21:28;;;;;;;5.70;5.20;;;;;;;5.24;100.00;96495.00;5040928;28;20463;-77
2023/03/29 09:24:13;;;;;;;5.80;4.67;;;;;;;5.42;100.00;96494.16;5070981;28;20504;-78
2023/03/29 09:27:07;;;;;;;7.40;5.10;;;;;;;5.24;100.00;96466.16;5070396;28;20501;-77
2023/03/29 09:29:39;;;;;;;6.00;5.17;;;;;;;5.50;100.00;96504.00;5051048;28;20440;-77
2023/03/29 09:32:35;;;;;;;5.00;4.50;;;;;;;5.29;100.00;96460.81;5050772;28;20493;-77
2023/03/29 09:35:17;;;;;;;5.40;4.90;;;;;;;5.41;100.00;96489.97;5038174;28;20436;-77
2023/03/29 09:37:47;;;;;;;4.93;4.40;;;;;;;5.32;100.00;96463.63;5050754;28;20882;-78
2023/03/29 09:40:23;;;;;;;4.77;4.37;;;;;;;5.27;100.00;96463.72;5063133;28;20448;-77
2023/03/29 09:43:11;;;;;;;6.30;4.67;;;;;;;5.57;100.00;96490.47;5054177;28;20527;-77
2023/03/29 09:45:39;;;;;;;4.20;3.70;;;;;;;5.14;100.00;96413.91;5065673;28;21033;-76
2023/03/29 09:48:15;;;;;;;6.23;5.00;;;;;;;5.78;100.00;96478.56;5050299;28;20486;-78
2023/03/29 09:50:50;;;;;;;7.93;4.00;;;;;;;5.84;100.00;96464.28;5044558;28;20490;-78
2023/03/29 09:53:20;;;;;;;5.30;4.30;;;;;;;6.30;100.00;96494.13;5037023;28;20459;-78
2023/03/29 09:56:00;;;;;;;5.37;4.87;;;;;;;5.94;100.00;96460.72;5053359;28;20432;-77
2023/03/29 09:58:42;;;;;;;6.57;4.73;;;;;;;6.27;100.00;96474.47;5072685;28;20455;-77
2023/03/29 10:01:13;;;;;;;5.30;4.80;;;;;;;6.46;100.00;96469.88;5081825;28;20555;-77
2023/03/29 10:03:40;;;;;;;5.57;4.97;;;;;;;6.53;100.00;96454.47;5045759;28;20437;-77
2023/03/29 10:06:13;;;;;;;4.60;4.30;;;;;;;6.77;100.00;96484.94;5059435;28;20440;-78
2023/03/29 10:08:49;;;;;;;4.60;4.10;;;;;;;6.85;100.00;96459.81;5062440;28;20843;-79
2023/03/29 10:11:22;;;;;;;6.10;4.73;;;;;;;6.94;100.00;96484.31;5068350;28;20452;-77
2023/03/29 10:13:53;;;;;;;4.43;3.77;;;;;;;6.82;100.00;96456.72;5068533;28;20429;-77
2023/03/29 10:16:24;;;;;;;4.63;4.23;;;;;;;6.81;100.00;96463.06;5045938;28;20440;-77
2023/03/29 10:18:53;;;;;;;5.17;4.67;;;;;;;7.18;100.00;96476.13;5039341;28;20473;-78
2023/03/29 10:21:20;;;;;;;4.63;4.17;;;;;;;7.17;100.00;96456.16;5047756;28;20460;-77
2023/03/29 10:23:49;;;;;;;4.53;4.13;;;;;;;7.30;100.00;96478.97;5066356;28;20516;-77
2023/03/29 10:26:29;;;;;;;6.13;4.90;;;;;;;7.25;100.00;96444.94;5072476;28;20531;-77
2023/03/29 10:28:59;;;;;;;5.50;4.80;;;;;;;7.51;100.00;96472.13;5049162;28;20488;-78
2023/03/29 10:31:30;;;;;;;4.53;4.10;;;;;;;7.65;100.00;96443.88;5050724;28;20547;-77
2023/03/29 10:34:01;;;;;;;5.70;4.40;;;;;;;7.57;100.00;96418.31;5086269;28;20473;-78
2023/03/29 10:36:29;;;;;;;5.13;4.50;;;;;;;7.74;100.00;96443.88;5087391;28;20818;-77
2023/03/29 10:38:59;;;;;;;5.13;4.17;;;;;;;8.19;100.00;96475.31;5073787;28;20428;-77
2023/03/29 10:41:31;;;;;;;10.03;4.13;;;;;;;8.39;100.00;96477.38;5058970;28;20457;-77
2023/03/29 10:44:00;;;;;;;6.03;5.03;;;;;;;8.35;100.00;96465.94;5073958;28;20456;-77
2023/03/29 10:46:31;;;;;;;5.73;4.23;;;;;;;8.38;100.00;96467.16;5065293;28;20487;-79
2023/03/29 10:49:04;;;;;;;6.30;3.93;;;;;;;8.21;100.00;96459.97;5038611;28;20428;-78
2023/03/29 10:51:33;;;;;;;44.27;26.87;;;;;;;8.28;100.00;96418.94;5042348;28;20499;-78
2023/03/29 10:54:01;;;;;;;137.43;67.30;;;;;;;8.52;100.00;96438.81;5043055;28;20506;-79
2023/03/29 10:56:38;;;;;;;9.10;7.07;;;;;;;8.75;100.00;96463.94;5058261;28;20551;-77
2023/03/29 10:59:41;;;;;;;5.30;4.80;;;;;;;8.88;100.00;96452.47;5047501;28;20486;-79
2023/03/29 11:02:13;;;;;;;72.53;41.13;;;;;;;8.91;100.00;96456.31;5053224;28;20557;-78
2023/03/29 11:05:18;;;;;;;6.20;5.07;;;;;;;8.93;100.00;96442.81;5060445;28;20506;-78
2023/03/29 11:07:54;;;;;;;4.10;3.80;;;;;;;9.03;100.00;96437.25;5042945;28;20570;-78
2023/03/29 11:10:44;;;;;;;7.50;6.00;;;;;;;9.16;100.00;96431.00;5051340;28;20936;-78
2023/03/29 11:13:29;;;;;;;7.50;6.60;;;;;;;9.23;100.00;96436.59;5083838;28;20454;-78
2023/03/29 11:16:05;;;;;;;6.00;3.70;;;;;;;9.19;100.00;96441.69;5073256;28;20466;-77
2023/03/29 11:18:54;;;;;;;17.43;15.73;;;;;;;9.36;100.00;96440.91;5061162;28;20451;-78
2023/03/29 11:21:26;;;;;;;4.90;4.50;;;;;;;9.43;100.00;96438.53;5063853;28;20474;-77
2023/03/29 11:24:05;;;;;;;6.53;5.97;;;;;;;9.54;100.00;96438.97;5065142;28;20958;-78
2023/03/29 11:26:59;;;;;;;3.80;3.10;;;;;;;9.16;100.00;96415.19;5059872;28;20521;-78
2023/03/29 11:29:49;;;;;;;4.80;3.43;;;;;;;9.49;100.00;96428.59;5038492;28;20479;-78
2023/03/29 11:32:23;;;;;;;4.77;4.20;;;;;;;9.63;100.00;96426.53;5019076;28;20547;-79
2023/03/29 11:35:22;;;;;;;4.00;2.77;;;;;;;9.50;100.00;96410.91;5060904;28;20456;-77
2023/03/29 11:37:57;;;;;;;3.63;2.73;;;;;;;9.57;100.00;96427.00;5073204;28;20412;-78
2023/03/29 11:40:31;;;;;;;2.90;2.70;;;;;;;9.57;100.00;96429.66;5059089;28;20527;-79
2023/03/29 11:43:01;;;;;;;3.00;2.43;;;;;;;8.97;100.00;96344.34;5041251;28;21016;-78
2023/03/29 11:45:34;;;;;;;4.23;3.80;;;;;;;9.37;100.00;96402.88;5065071;28;20476;-78
2023/03/29 11:48:04;;;;;;;4.40;2.67;;;;;;;9.82;100.00;96428.75;5048086;28;20479;-77
2023/03/29 11:50:42;;;;;;;2.30;2.10;;;;;;;9.68;100.00;96407.84;5053630;28;20448;-78
2023/03/29 11:53:16;;;;;;;4.13;2.77;;;;;;;9.88;100.00;96432.78;5057709;28;20518;-79
2023/03/29 11:55:44;;;;;;;4.70;2.50;;;;;;;9.47;100.00;96388.53;5059995;28;20982;-78
2023/03/29 11:58:33;;;;;;;3.10;2.53;;;;;;;9.75;100.00;96425.84;5059244;28;20894;-77
2023/03/29 12:01:09;;;;;;;9.07;2.17;;;;;;;9.55;100.00;96434.47;5056743;28;20956;-77
2023/03/29 12:04:10;;;;;;;2.93;2.73;;;;;;;9.62;100.00;96437.41;5072308;28;20429;-78